Terminal Aerodrome Forecast
Issued by NWS

Home | Current Version | Previous Version | Text Only | Print | Product List | Glossary On
Versions: 1 2 3 4 5 6 7 8 9 10 11 12 13
000
FTUS43 KAPX 281136
TAFPLN
TAF
KPLN 281136Z 2812/2912 01005KT 6SM -SHRA OVC100
     FM281500 04007KT P6SM VCSH BKN120
     FM281800 04007KT P6SM SCT110
     FM290500 VRB03KT P6SM SCT250=

USA.gov is the U.S. government's official web portal to all federal, state and local government web resources and services.